createdAt,value
2022-08-27T00:00:12.729Z,83.25
2022-08-27T00:01:12.920Z,83.45
2022-08-27T00:02:12.957Z,83.65
2022-08-27T00:03:12.965Z,83.85
2022-08-27T00:04:13.096Z,83.95
2022-08-27T00:05:13.123Z,83.95
2022-08-27T00:06:13.170Z,84.15
2022-08-27T00:07:13.244Z,84.15
2022-08-27T00:08:13.295Z,84.15
2022-08-27T00:09:13.393Z,84.05
2022-08-27T00:10:13.460Z,84.25
2022-08-27T00:11:13.539Z,84.35
2022-08-27T00:12:13.593Z,84.35
2022-08-27T00:13:13.686Z,84.35
2022-08-27T00:14:13.733Z,84.35
2022-08-27T00:15:13.824Z,84.35
2022-08-27T00:16:13.927Z,84.55
2022-08-27T00:17:13.943Z,84.85
2022-08-27T00:18:13.996Z,84.95
2022-08-27T00:19:14.076Z,85.05
2022-08-27T00:20:14.145Z,85.16
2022-08-27T00:21:14.221Z,85.50
2022-08-27T00:22:14.270Z,85.46
2022-08-27T00:23:14.352Z,85.70
2022-08-27T00:24:14.402Z,85.80
2022-08-27T00:25:14.492Z,85.90
2022-08-27T00:26:14.536Z,86.00
2022-08-27T00:27:14.631Z,86.10
2022-08-27T00:28:14.720Z,86.10
2022-08-27T00:29:14.795Z,86.20
2022-08-27T00:30:14.900Z,86.10
2022-08-27T00:31:15.045Z,86.10
2022-08-27T00:32:15.099Z,85.86
2022-08-27T00:33:15.104Z,85.86
2022-08-27T00:34:15.190Z,85.75
2022-08-27T00:35:15.290Z,85.75
2022-08-27T00:36:15.335Z,85.56
2022-08-27T00:37:15.415Z,85.56
2022-08-27T00:38:15.464Z,85.60
2022-08-27T00:39:15.541Z,85.60
2022-08-27T00:40:15.752Z,85.70
2022-08-27T00:41:15.734Z,85.80
2022-08-27T00:42:15.796Z,85.80
2022-08-27T00:43:15.906Z,85.70
2022-08-27T00:44:15.964Z,85.80
2022-08-27T00:45:16.053Z,85.80
2022-08-27T00:46:16.098Z,85.70
2022-08-27T00:47:16.188Z,85.70
2022-08-27T00:48:18.287Z,85.70
2022-08-27T00:49:16.388Z,85.70
2022-08-27T00:50:16.452Z,85.80
2022-08-27T00:51:16.530Z,85.90
2022-08-27T00:52:16.621Z,85.90
2022-08-27T00:53:16.715Z,85.80
2022-08-27T00:54:18.767Z,85.80
2022-08-27T00:55:16.863Z,85.80
2022-08-27T00:56:16.911Z,85.90
2022-08-27T00:57:16.988Z,86.00
2022-08-27T00:58:17.040Z,86.20
2022-08-27T00:59:17.137Z,86.20
2022-08-27T01:00:17.274Z,86.50
2022-08-27T01:01:17.434Z,86.70
2022-08-27T01:02:17.485Z,86.80
2022-08-27T01:03:17.420Z,86.90
2022-08-27T01:04:17.472Z,87.10
2022-08-27T01:05:17.561Z,87.10
2022-08-27T01:06:17.608Z,87.45
2022-08-27T01:07:17.687Z,87.45
2022-08-27T01:08:17.739Z,87.45
2022-08-27T01:09:17.816Z,87.41
2022-08-27T01:10:17.884Z,87.45
2022-08-27T01:11:17.964Z,87.45
2022-08-27T01:12:18.014Z,87.55
2022-08-27T01:13:18.096Z,87.75
2022-08-27T01:14:18.161Z,87.95
2022-08-27T01:15:20.188Z,87.95
2022-08-27T01:16:18.341Z,88.05
2022-08-27T01:17:18.386Z,88.05
2022-08-27T01:18:18.435Z,87.95
2022-08-27T01:19:18.510Z,88.05
2022-08-27T01:20:20.305Z,88.15
2022-08-27T01:21:18.642Z,88.45
2022-08-27T01:22:21.964Z,88.45
2022-08-27T01:23:18.772Z,88.55
2022-08-27T01:24:18.858Z,88.55
2022-08-27T01:25:18.954Z,88.65
2022-08-27T01:26:19.017Z,88.75
2022-08-27T01:27:19.095Z,88.75
2022-08-27T01:28:20.221Z,88.85
2022-08-27T01:29:19.272Z,88.95
2022-08-27T01:30:19.320Z,89.06
2022-08-27T01:31:19.506Z,89.15
2022-08-27T01:32:19.459Z,89.40
2022-08-27T01:33:19.537Z,89.50
2022-08-27T01:34:19.589Z,89.50
2022-08-27T01:35:19.661Z,89.70
2022-08-27T01:36:19.741Z,89.80
2022-08-27T01:37:23.601Z,90.00
2022-08-27T01:38:30.167Z,90.11
2022-08-27T01:39:19.946Z,90.11
2022-08-27T01:40:20.242Z,90.30
2022-08-27T01:41:20.105Z,90.41
2022-08-27T01:42:20.151Z,90.30
2022-08-27T01:43:20.391Z,90.70
2022-08-27T01:44:20.981Z,90.91
2022-08-27T01:45:20.427Z,90.91
2022-08-27T01:46:20.531Z,90.81
2022-08-27T01:47:20.579Z,90.61
2022-08-27T01:48:20.628Z,90.70
2022-08-27T01:49:20.708Z,90.81
2022-08-27T01:50:20.764Z,90.81
2022-08-27T01:51:20.879Z,90.81
2022-08-27T01:52:20.929Z,91.21
2022-08-27T01:53:21.015Z,91.41
2022-08-27T01:54:21.063Z,91.51
2022-08-27T01:55:21.140Z,91.61
2022-08-27T01:56:21.203Z,91.61
2022-08-27T01:57:25.716Z,91.61
2022-08-27T01:58:21.351Z,91.51
2022-08-27T01:59:21.426Z,91.51
2022-08-27T02:00:21.514Z,91.82
2022-08-27T02:01:21.669Z,91.71
2022-08-27T02:02:21.713Z,91.71
2022-08-27T02:03:21.720Z,92.02
2022-08-27T02:04:21.770Z,92.06
2022-08-27T02:05:21.868Z,92.26
2022-08-27T02:06:21.937Z,92.46
2022-08-27T02:07:22.013Z,92.32
2022-08-27T02:08:22.104Z,92.16
2022-08-27T02:09:22.179Z,92.16
2022-08-27T02:10:22.268Z,92.16
2022-08-27T02:11:22.370Z,92.16
2022-08-27T02:12:22.415Z,92.36
2022-08-27T02:13:22.494Z,92.46
2022-08-27T02:14:22.544Z,92.76
2022-08-27T02:15:22.622Z,92.76
2022-08-27T02:16:22.748Z,92.66
2022-08-27T02:17:22.784Z,92.56
2022-08-27T02:18:22.857Z,92.76
2022-08-27T02:19:22.936Z,92.86
2022-08-27T02:20:23.007Z,92.96
2022-08-27T02:21:23.116Z,93.16
2022-08-27T02:22:23.162Z,93.07
2022-08-27T02:23:23.240Z,92.86
2022-08-27T02:24:23.319Z,92.56
2022-08-27T02:25:23.419Z,92.36
2022-08-27T02:26:23.482Z,92.26
2022-08-27T02:27:23.577Z,92.06
2022-08-27T02:28:23.624Z,91.86
2022-08-27T02:29:23.703Z,91.86
2022-08-27T02:30:23.757Z,91.66
2022-08-27T02:31:23.894Z,91.66
2022-08-27T02:32:32.318Z,91.75
2022-08-27T02:33:24.028Z,91.66
2022-08-27T02:34:24.083Z,91.55
2022-08-27T02:35:24.166Z,91.55
2022-08-27T02:36:24.398Z,91.55
2022-08-27T02:37:24.316Z,91.46
2022-08-27T02:38:24.880Z,91.46
2022-08-27T02:39:24.492Z,91.46
2022-08-27T02:40:24.648Z,91.35
2022-08-27T02:41:24.664Z,91.25
2022-08-27T02:42:24.698Z,91.15
2022-08-27T02:43:25.383Z,91.35
2022-08-27T02:44:24.848Z,91.35
2022-08-27T02:45:24.922Z,91.15
2022-08-27T02:46:25.004Z,91.25
2022-08-27T02:47:25.056Z,91.15
2022-08-27T02:48:25.107Z,91.05
2022-08-27T02:49:25.186Z,90.65
2022-08-27T02:50:27.380Z,90.65
2022-08-27T02:51:25.324Z,90.65
2022-08-27T02:52:25.409Z,90.65
2022-08-27T02:53:25.463Z,90.55
2022-08-27T02:54:25.530Z,90.45
2022-08-27T02:55:25.640Z,90.25
2022-08-27T02:56:25.722Z,90.25
2022-08-27T02:57:25.798Z,90.15
2022-08-27T02:58:25.848Z,90.15
2022-08-27T02:59:25.927Z,90.34
2022-08-27T03:00:25.978Z,90.55
2022-08-27T03:01:26.112Z,90.34
2022-08-27T03:02:26.175Z,90.34
2022-08-27T03:03:26.203Z,90.34
2022-08-27T03:04:26.251Z,90.25
2022-08-27T03:05:26.329Z,90.25
2022-08-27T03:06:26.402Z,90.15
2022-08-27T03:07:26.481Z,90.25
2022-08-27T03:08:26.529Z,90.25
2022-08-27T03:09:26.609Z,90.05
2022-08-27T03:10:26.660Z,89.95
2022-08-27T03:11:26.788Z,89.95
2022-08-27T03:12:26.835Z,89.84
2022-08-27T03:13:26.912Z,89.75
2022-08-27T03:14:26.965Z,89.64
2022-08-27T03:15:27.045Z,89.44
2022-08-27T03:16:27.196Z,89.44
2022-08-27T03:17:27.178Z,89.44
2022-08-27T03:18:27.234Z,89.48
2022-08-27T03:19:27.329Z,89.44
2022-08-27T03:20:27.384Z,89.44
2022-08-27T03:21:27.482Z,89.44
2022-08-27T03:22:27.533Z,89.34
2022-08-27T03:23:27.632Z,89.48
2022-08-27T03:24:27.685Z,89.39
2022-08-27T03:25:27.792Z,89.34
2022-08-27T03:26:27.851Z,89.24
2022-08-27T03:27:27.933Z,89.28
2022-08-27T03:28:28.023Z,89.28
2022-08-27T03:29:28.098Z,89.39
2022-08-27T03:30:28.177Z,89.39
2022-08-27T03:31:28.436Z,89.48
2022-08-27T03:32:28.322Z,89.39
2022-08-27T03:33:28.399Z,89.39
2022-08-27T03:34:28.489Z,89.39
2022-08-27T03:35:28.567Z,89.39
2022-08-27T03:36:28.631Z,89.39
2022-08-27T03:37:28.712Z,89.28
2022-08-27T03:38:28.782Z,89.18
2022-08-27T03:39:28.860Z,89.18
2022-08-27T03:40:29.026Z,89.18
2022-08-27T03:41:45.462Z,89.18
2022-08-27T03:42:29.080Z,89.28
2022-08-27T03:43:29.156Z,89.28
2022-08-27T03:44:29.251Z,89.08
2022-08-27T03:45:29.344Z,88.98
2022-08-27T03:46:29.446Z,89.08
2022-08-27T03:47:29.473Z,89.08
2022-08-27T03:48:29.551Z,89.08
2022-08-27T03:49:29.590Z,89.08
2022-08-27T03:50:29.670Z,89.08
2022-08-27T03:51:29.736Z,89.08
2022-08-27T03:52:29.816Z,88.98
2022-08-27T03:53:29.867Z,88.98
2022-08-27T03:54:29.943Z,88.98
2022-08-27T03:55:29.995Z,89.08
2022-08-27T03:56:30.086Z,88.98
2022-08-27T03:57:30.122Z,88.98
2022-08-27T03:58:30.202Z,88.88
2022-08-27T03:59:30.272Z,88.78
2022-08-27T04:00:30.352Z,88.78
2022-08-27T04:01:30.472Z,88.68
2022-08-27T04:02:30.528Z,88.68
2022-08-27T04:03:30.572Z,88.68
2022-08-27T04:04:30.652Z,88.58
2022-08-27T04:05:30.703Z,88.48
2022-08-27T04:06:30.800Z,88.48
2022-08-27T04:07:30.830Z,88.48
2022-08-27T04:08:30.905Z,88.38
2022-08-27T04:09:31.015Z,88.28
2022-08-27T04:10:34.806Z,88.32
2022-08-27T04:11:31.160Z,88.22
2022-08-27T04:12:31.238Z,88.32
2022-08-27T04:13:31.291Z,88.32
2022-08-27T04:14:31.367Z,88.32
2022-08-27T04:15:31.416Z,88.32
2022-08-27T04:16:31.531Z,88.22
2022-08-27T04:17:31.571Z,88.22
2022-08-27T04:18:31.649Z,88.22
2022-08-27T04:19:31.700Z,88.22
2022-08-27T04:20:35.549Z,88.12
2022-08-27T04:21:31.858Z,88.02
2022-08-27T04:22:31.933Z,88.12
2022-08-27T04:23:32.022Z,88.02
2022-08-27T04:24:32.102Z,87.82
2022-08-27T04:25:32.153Z,88.02
2022-08-27T04:26:32.254Z,88.22
2022-08-27T04:27:32.301Z,88.22
2022-08-27T04:28:35.202Z,88.12
2022-08-27T04:29:32.518Z,88.02
2022-08-27T04:30:32.520Z,88.02
2022-08-27T04:31:32.788Z,87.82
2022-08-27T04:32:32.671Z,87.71
2022-08-27T04:33:32.749Z,87.62
2022-08-27T04:34:32.830Z,87.62
2022-08-27T04:35:32.884Z,87.71
2022-08-27T04:36:32.978Z,87.62
2022-08-27T04:37:33.032Z,87.71
2022-08-27T04:38:33.116Z,87.82
2022-08-27T04:39:33.184Z,87.82
2022-08-27T04:40:33.324Z,87.82
2022-08-27T04:41:33.368Z,88.12
2022-08-27T04:42:33.424Z,87.92
2022-08-27T04:43:33.474Z,87.71
2022-08-27T04:44:33.553Z,87.62
2022-08-27T04:45:33.604Z,87.62
2022-08-27T04:46:33.745Z,87.51
2022-08-27T04:47:33.746Z,87.31
2022-08-27T04:48:33.826Z,87.41
2022-08-27T04:49:33.967Z,87.31
2022-08-27T04:50:33.985Z,87.41
2022-08-27T04:51:34.052Z,87.31
2022-08-27T04:52:34.130Z,87.31
2022-08-27T04:53:34.204Z,87.21
2022-08-27T04:54:34.297Z,87.21
2022-08-27T04:55:34.384Z,87.21
2022-08-27T04:56:34.482Z,87.21
2022-08-27T04:57:34.530Z,87.21
2022-08-27T04:58:34.607Z,87.11
2022-08-27T04:59:34.676Z,87.21
2022-08-27T05:00:34.770Z,87.01
2022-08-27T05:01:34.915Z,87.01
2022-08-27T05:02:34.932Z,87.01
2022-08-27T05:03:34.982Z,87.01
2022-08-27T05:04:35.055Z,86.81
2022-08-27T05:05:35.223Z,86.81
2022-08-27T05:06:35.250Z,86.61
2022-08-27T05:07:35.292Z,86.51
2022-08-27T05:08:35.402Z,86.41
2022-08-27T05:09:35.488Z,86.41
2022-08-27T05:10:35.562Z,86.30
2022-08-27T05:11:35.659Z,86.41
2022-08-27T05:12:35.731Z,86.21
2022-08-27T05:13:35.819Z,86.10
2022-08-27T05:14:35.895Z,86.30
2022-08-27T05:15:36.028Z,86.30
2022-08-27T05:16:36.075Z,86.30
2022-08-27T05:17:36.123Z,86.21
2022-08-27T05:18:42.167Z,86.10
2022-08-27T05:19:36.261Z,86.00
2022-08-27T05:20:36.335Z,85.90
2022-08-27T05:21:36.441Z,85.80
2022-08-27T05:22:36.517Z,85.80
2022-08-27T05:23:36.678Z,85.70
2022-08-27T05:24:36.700Z,85.40
2022-08-27T05:25:36.757Z,85.30
2022-08-27T05:26:36.846Z,85.30
2022-08-27T05:27:36.891Z,85.10
2022-08-27T05:28:36.969Z,84.89
2022-08-27T05:29:37.019Z,85.00
2022-08-27T05:30:37.096Z,84.89
2022-08-27T05:31:37.185Z,85.00
2022-08-27T05:32:37.249Z,84.80
2022-08-27T05:33:37.326Z,84.59
2022-08-27T05:34:37.406Z,84.59
2022-08-27T05:35:37.460Z,84.80
2022-08-27T05:36:37.579Z,84.80
2022-08-27T05:37:37.635Z,84.69
2022-08-27T05:38:37.710Z,84.59
2022-08-27T05:39:37.801Z,84.69
2022-08-27T05:40:37.878Z,84.80
2022-08-27T05:41:37.951Z,84.80
2022-08-27T05:42:38.024Z,84.59
2022-08-27T05:43:38.112Z,84.29
2022-08-27T05:44:41.975Z,84.29
2022-08-27T05:45:38.273Z,84.29
2022-08-27T05:46:38.439Z,84.29
2022-08-27T05:47:40.969Z,84.39
2022-08-27T05:48:38.553Z,84.39
2022-08-27T05:49:38.598Z,84.29
2022-08-27T05:50:38.677Z,84.29
2022-08-27T05:51:38.767Z,84.19
2022-08-27T05:52:38.844Z,84.29
2022-08-27T05:53:38.895Z,84.29
2022-08-27T05:54:38.990Z,84.39
2022-08-27T05:55:39.067Z,84.29
2022-08-27T05:56:39.165Z,84.19
2022-08-27T05:57:39.208Z,84.19
2022-08-27T05:58:39.286Z,84.09
2022-08-27T05:59:39.334Z,83.99
2022-08-27T06:00:39.411Z,83.89
2022-08-27T06:01:39.516Z,83.89
2022-08-27T06:02:39.672Z,83.79
2022-08-27T06:03:39.663Z,83.79
2022-08-27T06:04:39.739Z,83.69
2022-08-27T06:05:39.878Z,83.79
2022-08-27T06:06:39.930Z,83.69
2022-08-27T06:07:39.979Z,83.59
2022-08-27T06:08:40.058Z,83.48
2022-08-27T06:09:40.122Z,83.39
2022-08-27T06:10:40.203Z,83.59
2022-08-27T06:11:40.440Z,83.59
2022-08-27T06:12:40.356Z,83.39
2022-08-27T06:13:40.438Z,83.48
2022-08-27T06:14:40.533Z,83.48
2022-08-27T06:15:40.609Z,83.59
2022-08-27T06:16:40.686Z,83.39
2022-08-27T06:17:40.730Z,83.39
2022-08-27T06:18:40.809Z,83.48
2022-08-27T06:19:40.885Z,83.39
2022-08-27T06:20:40.986Z,83.39
2022-08-27T06:21:41.075Z,83.28
2022-08-27T06:22:41.150Z,83.18
2022-08-27T06:23:41.220Z,83.18
2022-08-27T06:24:41.299Z,83.18
2022-08-27T06:25:41.402Z,83.18
2022-08-27T06:26:41.507Z,83.18
2022-08-27T06:27:41.548Z,83.28
2022-08-27T06:28:41.638Z,83.18
2022-08-27T06:29:41.686Z,83.08
2022-08-27T06:30:41.784Z,83.18
2022-08-27T06:31:41.854Z,83.18
2022-08-27T06:32:41.931Z,83.18
2022-08-27T06:33:42.017Z,83.18
2022-08-27T06:34:42.094Z,83.28
2022-08-27T06:35:42.171Z,83.28
2022-08-27T06:36:42.260Z,83.28
2022-08-27T06:37:42.307Z,83.48
2022-08-27T06:38:42.385Z,83.59
2022-08-27T06:39:42.465Z,83.59
2022-08-27T06:40:42.545Z,83.69
2022-08-27T06:41:42.653Z,83.59
2022-08-27T06:42:42.724Z,83.59
2022-08-27T06:43:42.801Z,83.48
2022-08-27T06:44:42.892Z,83.39
2022-08-27T06:45:42.951Z,83.28
2022-08-27T06:46:43.178Z,83.28
2022-08-27T06:47:43.088Z,83.39
2022-08-27T06:48:43.178Z,83.39
2022-08-27T06:49:46.484Z,83.25
2022-08-27T06:50:43.335Z,83.25
2022-08-27T06:51:43.405Z,83.25
2022-08-27T06:52:43.468Z,83.25
2022-08-27T06:53:43.517Z,83.34
2022-08-27T06:54:43.593Z,83.45
2022-08-27T06:55:43.672Z,83.45
2022-08-27T06:56:43.772Z,83.45
2022-08-27T06:57:43.830Z,83.45
2022-08-27T06:58:43.907Z,83.54
2022-08-27T06:59:44.000Z,83.54
2022-08-27T07:00:48.428Z,83.65
2022-08-27T07:01:44.206Z,83.75
2022-08-27T07:02:44.313Z,83.75
2022-08-27T07:03:44.299Z,83.95
2022-08-27T07:04:44.393Z,84.05
2022-08-27T07:05:44.452Z,84.05
2022-08-27T07:06:44.543Z,83.95
2022-08-27T07:07:48.661Z,83.84
2022-08-27T07:08:44.684Z,83.84
2022-08-27T07:09:44.760Z,83.95
2022-08-27T07:10:44.839Z,84.05
2022-08-27T07:11:44.922Z,84.15
2022-08-27T07:12:45.011Z,84.25
2022-08-27T07:13:45.068Z,84.15
2022-08-27T07:14:45.160Z,84.05
2022-08-27T07:15:45.357Z,84.15
2022-08-27T07:16:45.391Z,83.95
2022-08-27T07:17:45.397Z,83.95
2022-08-27T07:18:45.482Z,83.95
2022-08-27T07:19:45.559Z,84.05
2022-08-27T07:20:45.638Z,84.05
2022-08-27T07:21:45.710Z,84.25
2022-08-27T07:22:45.787Z,84.45
2022-08-27T07:23:45.864Z,84.49
2022-08-27T07:24:45.943Z,84.45
2022-08-27T07:25:46.022Z,84.35
2022-08-27T07:26:46.112Z,84.25
2022-08-27T07:27:46.157Z,84.25
2022-08-27T07:28:46.237Z,84.25
2022-08-27T07:29:46.307Z,84.25
2022-08-27T07:30:46.419Z,84.25
2022-08-27T07:31:46.485Z,84.35
2022-08-27T07:32:46.565Z,84.35
2022-08-27T07:33:52.527Z,84.35
2022-08-27T07:34:46.718Z,84.25
2022-08-27T07:35:46.773Z,84.35
2022-08-27T07:36:46.861Z,84.45
2022-08-27T07:37:46.925Z,84.55
2022-08-27T07:38:56.650Z,84.75
2022-08-27T07:39:47.079Z,84.75
2022-08-27T07:40:47.159Z,84.75
2022-08-27T07:41:47.258Z,84.75
2022-08-27T07:42:47.327Z,84.95
2022-08-27T07:43:47.389Z,84.95
2022-08-27T07:44:47.468Z,85.05
2022-08-27T07:45:47.575Z,85.05
2022-08-27T07:46:49.110Z,85.05
2022-08-27T07:47:47.684Z,85.16
2022-08-27T07:48:47.775Z,85.16
2022-08-27T07:49:48.675Z,85.16
2022-08-27T07:50:47.911Z,85.16
2022-08-27T07:51:48.014Z,85.16
2022-08-27T07:52:48.095Z,85.16
2022-08-27T07:53:48.185Z,85.16
2022-08-27T07:54:48.262Z,85.36
2022-08-27T07:55:48.354Z,85.46
2022-08-27T07:56:55.462Z,85.76
2022-08-27T07:57:48.533Z,86.26
2022-08-27T07:58:48.578Z,86.81
2022-08-27T07:59:48.689Z,87.31
2022-08-27T08:00:48.777Z,87.51
2022-08-27T08:01:48.933Z,87.82
2022-08-27T08:02:48.976Z,87.92
2022-08-27T08:03:49.032Z,88.12
2022-08-27T08:04:49.100Z,88.36
2022-08-27T08:05:49.150Z,88.76
2022-08-27T08:06:49.255Z,88.76
2022-08-27T08:07:49.305Z,88.76
2022-08-27T08:08:49.387Z,88.66
2022-08-27T08:09:49.460Z,88.76
2022-08-27T08:10:49.560Z,88.96
2022-08-27T08:11:49.631Z,89.26
2022-08-27T08:12:49.704Z,89.26
2022-08-27T08:13:49.761Z,88.86
2022-08-27T08:14:49.843Z,88.66
2022-08-27T08:15:49.903Z,88.52
2022-08-27T08:16:50.079Z,88.52
2022-08-27T08:17:50.043Z,88.42
2022-08-27T08:18:50.124Z,88.52
2022-08-27T08:20:02.650Z,88.46
2022-08-27T08:20:58.103Z,88.86
2022-08-27T08:21:53.022Z,88.72
2022-08-27T08:22:50.416Z,88.72
2022-08-27T08:23:50.466Z,88.86
2022-08-27T08:24:50.566Z,89.06
2022-08-27T08:25:50.614Z,89.37
2022-08-27T08:26:50.724Z,89.47
2022-08-27T08:27:50.777Z,89.63
2022-08-27T08:28:50.865Z,89.67
2022-08-27T08:29:50.926Z,89.67
2022-08-27T08:30:51.107Z,89.97
2022-08-27T08:31:51.101Z,89.87
2022-08-27T08:32:51.172Z,89.77
2022-08-27T08:33:51.259Z,89.97
2022-08-27T08:34:51.359Z,89.77
2022-08-27T08:35:51.407Z,89.77
2022-08-27T08:36:55.084Z,89.57
2022-08-27T08:37:51.551Z,89.57
2022-08-27T08:38:51.632Z,89.67
2022-08-27T08:39:51.734Z,89.87
2022-08-27T08:40:51.759Z,89.97
2022-08-27T08:41:51.882Z,90.03
2022-08-27T08:42:51.929Z,89.83
2022-08-27T08:43:51.990Z,89.63
2022-08-27T08:44:52.056Z,89.93
2022-08-27T08:45:52.159Z,89.63
2022-08-27T08:46:52.220Z,89.83
2022-08-27T08:47:52.269Z,89.83
2022-08-27T08:48:52.351Z,89.93
2022-08-27T08:49:52.424Z,90.07
2022-08-27T08:50:52.512Z,90.17
2022-08-27T08:51:52.585Z,90.37
2022-08-27T08:52:52.655Z,90.53
2022-08-27T08:53:52.749Z,90.68
2022-08-27T08:54:53.200Z,90.58
2022-08-27T08:55:52.902Z,90.68
2022-08-27T08:56:55.076Z,90.58
2022-08-27T08:57:53.039Z,90.98
2022-08-27T08:58:53.127Z,90.98
2022-08-27T08:59:53.207Z,91.08
2022-08-27T09:00:53.350Z,91.18
2022-08-27T09:01:53.396Z,91.08
2022-08-27T09:02:53.464Z,91.08
2022-08-27T09:03:53.613Z,91.08
2022-08-27T09:04:53.624Z,91.28
2022-08-27T09:05:53.670Z,91.38
2022-08-27T09:06:53.779Z,91.69
2022-08-27T09:07:58.239Z,91.69
2022-08-27T09:08:53.920Z,91.58
2022-08-27T09:09:53.974Z,91.38
2022-08-27T09:10:54.052Z,91.38
2022-08-27T09:11:54.142Z,91.18
2022-08-27T09:12:54.227Z,91.08
2022-08-27T09:13:54.286Z,90.98
2022-08-27T09:14:54.365Z,90.98
2022-08-27T09:15:54.447Z,90.98
2022-08-27T09:16:56.557Z,90.98
2022-08-27T09:17:54.599Z,90.78
2022-08-27T09:18:54.686Z,90.48
2022-08-27T09:19:54.773Z,90.37
2022-08-27T09:20:54.854Z,90.17
2022-08-27T09:21:54.923Z,90.07
2022-08-27T09:22:55.002Z,89.97
2022-08-27T09:23:55.080Z,90.07
2022-08-27T09:24:55.159Z,90.07
2022-08-27T09:25:55.225Z,89.87
2022-08-27T09:26:55.324Z,89.87
2022-08-27T09:27:55.365Z,89.87
2022-08-27T09:28:55.448Z,89.77
2022-08-27T09:29:55.497Z,89.77
2022-08-27T09:30:55.613Z,89.57
2022-08-27T09:31:55.658Z,89.57
2022-08-27T09:32:55.735Z,89.57
2022-08-27T09:33:56.957Z,89.47
2022-08-27T09:34:55.902Z,89.26
2022-08-27T09:35:55.988Z,89.17
2022-08-27T09:36:57.797Z,89.06
2022-08-27T09:37:56.141Z,88.86
2022-08-27T09:38:56.871Z,88.96
2022-08-27T09:39:56.384Z,88.76
2022-08-27T09:40:56.417Z,88.56
2022-08-27T09:41:56.488Z,88.66
2022-08-27T09:42:56.601Z,88.76
2022-08-27T09:43:56.640Z,88.66
2022-08-27T09:44:56.718Z,88.46
2022-08-27T09:45:56.831Z,88.56
2022-08-27T09:46:56.861Z,88.66
2022-08-27T09:47:56.965Z,88.56
2022-08-27T09:48:57.035Z,88.56
2022-08-27T09:49:57.124Z,88.56
2022-08-27T09:50:57.206Z,88.56
2022-08-27T09:51:57.254Z,88.56
2022-08-27T09:52:57.365Z,88.46
2022-08-27T09:53:57.412Z,88.36
2022-08-27T09:54:57.491Z,88.36
2022-08-27T09:55:57.583Z,88.36
2022-08-27T09:56:57.659Z,88.26
2022-08-27T09:57:57.741Z,88.26
2022-08-27T09:58:57.798Z,88.26
2022-08-27T09:59:57.846Z,88.16
2022-08-27T10:00:57.973Z,88.16
2022-08-27T10:01:58.007Z,88.06
2022-08-27T10:02:58.101Z,88.16
2022-08-27T10:03:58.193Z,88.06
2022-08-27T10:04:58.246Z,88.16
2022-08-27T10:05:58.337Z,88.36
2022-08-27T10:06:58.414Z,88.46
2022-08-27T10:07:58.567Z,88.66
2022-08-27T10:08:58.589Z,88.66
2022-08-27T10:09:58.673Z,88.66
2022-08-27T10:10:58.754Z,88.66
2022-08-27T10:11:58.802Z,88.56
2022-08-27T10:12:58.916Z,88.56
2022-08-27T10:13:58.945Z,88.26
2022-08-27T10:14:59.025Z,88.26
2022-08-27T10:15:59.119Z,88.46
2022-08-27T10:16:59.272Z,88.66
2022-08-27T10:17:59.290Z,88.86
2022-08-27T10:18:59.331Z,88.86
2022-08-27T10:19:59.419Z,88.96
2022-08-27T10:21:04.871Z,88.86
2022-08-27T10:21:59.579Z,88.86
2022-08-27T10:22:59.692Z,88.76
2022-08-27T10:23:59.731Z,88.66
2022-08-27T10:24:59.822Z,88.66
2022-08-27T10:25:59.911Z,88.76
2022-08-27T10:26:59.991Z,88.86
2022-08-27T10:28:00.100Z,89.06
2022-08-27T10:29:00.168Z,89.06
2022-08-27T10:30:00.247Z,89.06
2022-08-27T10:31:00.327Z,89.26
2022-08-27T10:32:00.500Z,89.61
2022-08-27T10:33:03.721Z,89.81
2022-08-27T10:34:00.559Z,89.91
2022-08-27T10:35:00.650Z,89.57
2022-08-27T10:36:00.704Z,89.57
2022-08-27T10:37:00.778Z,89.37
2022-08-27T10:38:00.869Z,89.11
2022-08-27T10:39:00.937Z,89.11
2022-08-27T10:40:01.047Z,89.21
2022-08-27T10:41:01.104Z,89.31
2022-08-27T10:42:01.186Z,89.31
2022-08-27T10:43:01.277Z,89.31
2022-08-27T10:44:01.336Z,89.31
2022-08-27T10:45:01.415Z,89.31
2022-08-27T10:46:01.518Z,89.41
2022-08-27T10:47:01.563Z,89.31
2022-08-27T10:48:01.665Z,89.31
2022-08-27T10:49:01.745Z,89.21
2022-08-27T10:50:01.834Z,89.21
2022-08-27T10:51:01.915Z,89.11
2022-08-27T10:52:05.328Z,88.90
2022-08-27T10:53:03.784Z,88.86
2022-08-27T10:54:02.140Z,88.86
2022-08-27T10:55:02.224Z,88.56
2022-08-27T10:56:02.292Z,88.46
2022-08-27T10:57:24.543Z,88.26
2022-08-27T10:58:02.449Z,88.06
2022-08-27T10:59:02.555Z,88.16
2022-08-27T11:00:02.602Z,88.16
2022-08-27T11:01:02.740Z,87.96
2022-08-27T11:02:02.822Z,87.85
2022-08-27T11:03:02.832Z,87.55
2022-08-27T11:04:02.939Z,87.35
2022-08-27T11:05:03.008Z,87.25
2022-08-27T11:06:03.087Z,87.25
2022-08-27T11:07:03.172Z,87.35
2022-08-27T11:08:03.214Z,87.35
2022-08-27T11:09:07.627Z,87.25
2022-08-27T11:10:03.392Z,87.25
2022-08-27T11:11:26.038Z,87.05
2022-08-27T11:12:14.363Z,87.05
2022-08-27T11:13:03.640Z,87.05
2022-08-27T11:14:03.729Z,87.01
2022-08-27T11:15:03.787Z,86.81
2022-08-27T11:16:03.855Z,86.71
2022-08-27T11:17:03.917Z,86.41
2022-08-27T11:18:04.005Z,86.10
2022-08-27T11:19:04.100Z,86.00
2022-08-27T11:20:04.146Z,85.90
2022-08-27T11:21:04.231Z,85.60
2022-08-27T11:22:04.282Z,85.70
2022-08-27T11:23:04.358Z,85.56
2022-08-27T11:24:04.443Z,85.36
2022-08-27T11:25:04.516Z,85.05
2022-08-27T11:26:04.603Z,84.85
2022-08-27T11:27:04.684Z,84.85
2022-08-27T11:28:04.765Z,84.51
2022-08-27T11:29:04.853Z,84.41
2022-08-27T11:30:04.897Z,84.21
2022-08-27T11:31:05.117Z,84.21
2022-08-27T11:32:05.047Z,84.01
2022-08-27T11:33:05.128Z,83.71
2022-08-27T11:34:05.239Z,83.61
2022-08-27T11:35:05.308Z,83.26
2022-08-27T11:36:05.396Z,83.26
2022-08-27T11:37:05.487Z,83.06
2022-08-27T11:38:05.567Z,82.86
2022-08-27T11:39:05.698Z,82.32
2022-08-27T11:40:05.801Z,82.12
2022-08-27T11:41:05.854Z,81.62
2022-08-27T11:42:05.945Z,81.27
2022-08-27T11:43:06.015Z,81.07
2022-08-27T11:44:06.125Z,80.88
2022-08-27T11:45:06.198Z,80.43
2022-08-27T11:46:06.278Z,80.04
2022-08-27T11:47:06.398Z,79.73
2022-08-27T11:48:06.411Z,79.69
2022-08-27T11:49:06.499Z,79.09
2022-08-27T11:50:06.562Z,78.66
2022-08-27T11:51:06.659Z,78.25
2022-08-27T11:52:06.731Z,78.15
2022-08-27T11:53:06.819Z,77.75
2022-08-27T11:54:06.874Z,77.45
2022-08-27T11:55:06.957Z,77.45
2022-08-27T11:56:07.045Z,77.35
2022-08-27T11:57:07.117Z,77.35
2022-08-27T11:58:07.289Z,77.55
2022-08-27T11:59:07.307Z,77.65
2022-08-27T12:00:07.349Z,77.45
2022-08-27T12:01:07.423Z,77.65
2022-08-27T12:02:07.512Z,77.65
2022-08-27T12:03:07.634Z,77.55
2022-08-27T12:04:07.734Z,77.41
2022-08-27T12:05:07.788Z,77.31
2022-08-27T12:06:07.855Z,76.81
2022-08-27T12:07:07.944Z,76.81
2022-08-27T12:08:08.069Z,76.91
2022-08-27T12:09:08.125Z,76.81
2022-08-27T12:10:08.187Z,76.51
2022-08-27T12:11:08.278Z,76.51
2022-08-27T12:12:08.325Z,76.71
2022-08-27T12:13:08.404Z,77.01
2022-08-27T12:14:08.495Z,77.15
2022-08-27T12:15:08.574Z,77.15
2022-08-27T12:16:08.686Z,77.05
2022-08-27T12:17:08.740Z,77.05
2022-08-27T12:18:08.787Z,77.11
2022-08-27T12:19:08.907Z,77.11
2022-08-27T12:20:09.021Z,76.81
2022-08-27T12:21:09.051Z,77.05
2022-08-27T12:22:09.130Z,77.15
2022-08-27T12:23:09.178Z,77.05
2022-08-27T12:24:09.283Z,76.91
2022-08-27T12:25:09.333Z,76.81
2022-08-27T12:26:09.404Z,76.71
2022-08-27T12:27:09.476Z,76.95
2022-08-27T12:28:09.677Z,77.05
2022-08-27T12:29:09.637Z,76.85
2022-08-27T12:30:09.717Z,76.95
2022-08-27T12:31:09.820Z,76.91
2022-08-27T12:32:09.879Z,76.61
2022-08-27T12:33:09.947Z,76.61
2022-08-27T12:34:10.064Z,76.51
2022-08-27T12:35:10.102Z,76.71
2022-08-27T12:36:10.181Z,76.81
2022-08-27T12:37:10.255Z,76.51
2022-08-27T12:38:10.572Z,76.21
2022-08-27T12:39:10.428Z,76.21
2022-08-27T12:40:10.552Z,76.31
2022-08-27T12:41:10.558Z,76.01
2022-08-27T12:42:10.635Z,75.87
2022-08-27T12:43:10.723Z,75.77
2022-08-27T12:44:10.835Z,75.57
2022-08-27T12:45:10.901Z,75.37
2022-08-27T12:46:10.994Z,75.47
2022-08-27T12:47:11.130Z,75.07
2022-08-27T12:48:11.390Z,74.87
2022-08-27T12:49:34.249Z,74.87
2022-08-27T12:50:11.312Z,75.07
2022-08-27T12:51:11.361Z,74.97
2022-08-27T12:52:11.490Z,74.97
2022-08-27T12:53:11.509Z,74.87